sensor_id;sensor_type;location;lat;lon;timestamp;P1;P2;P0
54869;PMS5003;40756;-37.950;145.008;2023-03-23T00:00:09;14;11;
54869;PMS5003;40756;-37.950;145.008;2023-03-23T00:02:38;13;13;
54869;PMS5003;40756;-37.950;145.008;2023-03-23T00:05:08;8;8;
54869;PMS5003;40756;-37.950;145.008;2023-03-23T00:07:38;8;8;
54869;PMS5003;40756;-37.950;145.008;2023-03-23T00:10:07;11;10;
54869;PMS5003;40756;-37.950;145.008;2023-03-23T00:12:38;11;10;
54869;PMS5003;40756;-37.950;145.008;2023-03-23T00:15:08;7;7;
54869;PMS5003;40756;-37.950;145.008;2023-03-23T00:17:39;8;8;
54869;PMS5003;40756;-37.950;145.008;2023-03-23T00:20:09;8;7;
54869;PMS5003;40756;-37.950;145.008;2023-03-23T00:22:38;8;8;
54869;PMS5003;40756;-37.950;145.008;2023-03-23T00:25:08;7;7;
54869;PMS5003;40756;-37.950;145.008;2023-03-23T00:27:37;9;8;
54869;PMS5003;40756;-37.950;145.008;2023-03-23T00:30:07;9;8;
54869;PMS5003;40756;-37.950;145.008;2023-03-23T00:32:37;10;10;
54869;PMS5003;40756;-37.950;145.008;2023-03-23T00:35:07;17;16;
54869;PMS5003;40756;-37.950;145.008;2023-03-23T00:37:37;14;13;
54869;PMS5003;40756;-37.950;145.008;2023-03-23T00:40:06;12;12;
54869;PMS5003;40756;-37.950;145.008;2023-03-23T00:42:36;12;12;
54869;PMS5003;40756;-37.950;145.008;2023-03-23T00:45:06;10;10;
54869;PMS5003;40756;-37.950;145.008;2023-03-23T00:47:36;14;13;
54869;PMS5003;40756;-37.950;145.008;2023-03-23T00:50:06;13;11;
54869;PMS5003;40756;-37.950;145.008;2023-03-23T00:52:36;11;9;
54869;PMS5003;40756;-37.950;145.008;2023-03-23T00:55:06;10;9;
54869;PMS5003;40756;-37.950;145.008;2023-03-23T00:57:36;12;11;
54869;PMS5003;40756;-37.950;145.008;2023-03-23T01:00:06;8;8;
54869;PMS5003;40756;-37.950;145.008;2023-03-23T01:02:37;10;10;
54869;PMS5003;40756;-37.950;145.008;2023-03-23T01:05:07;10;9;
54869;PMS5003;40756;-37.950;145.008;2023-03-23T01:07:37;9;8;
54869;PMS5003;40756;-37.950;145.008;2023-03-23T01:10:07;9;8;
54869;PMS5003;40756;-37.950;145.008;2023-03-23T01:12:37;10;10;
54869;PMS5003;40756;-37.950;145.008;2023-03-23T01:15:06;10;10;
54869;PMS5003;40756;-37.950;145.008;2023-03-23T01:17:36;13;11;
54869;PMS5003;40756;-37.950;145.008;2023-03-23T01:20:07;11;11;
54869;PMS5003;40756;-37.950;145.008;2023-03-23T01:22:37;9;9;
54869;PMS5003;40756;-37.950;145.008;2023-03-23T01:25:08;9;9;
54869;PMS5003;40756;-37.950;145.008;2023-03-23T01:27:39;10;10;
54869;PMS5003;40756;-37.950;145.008;2023-03-23T01:30:10;13;12;
54869;PMS5003;40756;-37.950;145.008;2023-03-23T01:32:40;14;13;
54869;PMS5003;40756;-37.950;145.008;2023-03-23T01:35:11;7;7;
54869;PMS5003;40756;-37.950;145.008;2023-03-23T01:37:41;13;13;
54869;PMS5003;40756;-37.950;145.008;2023-03-23T01:40:11;17;16;
54869;PMS5003;40756;-37.950;145.008;2023-03-23T01:42:42;19;19;
54869;PMS5003;40756;-37.950;145.008;2023-03-23T01:45:30;20;20;
54869;PMS5003;40756;-37.950;145.008;2023-03-23T01:48:04;20;20;
54869;PMS5003;40756;-37.950;145.008;2023-03-23T01:50:41;23;22;
54869;PMS5003;40756;-37.950;145.008;2023-03-23T01:53:19;22;21;
54869;PMS5003;40756;-37.950;145.008;2023-03-23T01:55:50;18;17;
54869;PMS5003;40756;-37.950;145.008;2023-03-23T01:58:22;16;15;
54869;PMS5003;40756;-37.950;145.008;2023-03-23T02:00:54;21;20;
54869;PMS5003;40756;-37.950;145.008;2023-03-23T02:03:25;14;12;
54869;PMS5003;40756;-37.950;145.008;2023-03-23T02:05:56;12;11;
54869;PMS5003;40756;-37.950;145.008;2023-03-23T02:08:26;12;12;
54869;PMS5003;40756;-37.950;145.008;2023-03-23T02:10:58;11;11;
54869;PMS5003;40756;-37.950;145.008;2023-03-23T02:13:27;14;14;
54869;PMS5003;40756;-37.950;145.008;2023-03-23T02:16:01;13;13;
54869;PMS5003;40756;-37.950;145.008;2023-03-23T02:18:42;13;13;
54869;PMS5003;40756;-37.950;145.008;2023-03-23T02:21:43;11;11;
54869;PMS5003;40756;-37.950;145.008;2023-03-23T02:24:31;12;12;
54869;PMS5003;40756;-37.950;145.008;2023-03-23T02:27:23;12;11;
54869;PMS5003;40756;-37.950;145.008;2023-03-23T02:30:14;14;14;
54869;PMS5003;40756;-37.950;145.008;2023-03-23T02:33:08;15;14;
54869;PMS5003;40756;-37.950;145.008;2023-03-23T02:35:45;16;13;
54869;PMS5003;40756;-37.950;145.008;2023-03-23T02:38:21;11;10;
54869;PMS5003;40756;-37.950;145.008;2023-03-23T02:40:56;11;10;
54869;PMS5003;40756;-37.950;145.008;2023-03-23T02:43:31;10;10;
54869;PMS5003;40756;-37.950;145.008;2023-03-23T02:46:06;9;9;
54869;PMS5003;40756;-37.950;145.008;2023-03-23T02:48:38;10;10;
54869;PMS5003;40756;-37.950;145.008;2023-03-23T02:51:11;8;8;
54869;PMS5003;40756;-37.950;145.008;2023-03-23T02:53:41;10;10;
54869;PMS5003;40756;-37.950;145.008;2023-03-23T02:56:13;9;9;
54869;PMS5003;40756;-37.950;145.008;2023-03-23T02:58:43;13;12;
54869;PMS5003;40756;-37.950;145.008;2023-03-23T03:01:15;8;8;
54869;PMS5003;40756;-37.950;145.008;2023-03-23T03:04:16;11;10;
54869;PMS5003;40756;-37.950;145.008;2023-03-23T03:06:53;11;11;
54869;PMS5003;40756;-37.950;145.008;2023-03-23T03:09:31;7;7;
54869;PMS5003;40756;-37.950;145.008;2023-03-23T03:12:11;6;6;
54869;PMS5003;40756;-37.950;145.008;2023-03-23T03:14:48;6;6;
54869;PMS5003;40756;-37.950;145.008;2023-03-23T03:17:24;8;8;
54869;PMS5003;40756;-37.950;145.008;2023-03-23T03:19:57;9;9;
54869;PMS5003;40756;-37.950;145.008;2023-03-23T03:22:30;10;10;
54869;PMS5003;40756;-37.950;145.008;2023-03-23T03:25:01;10;9;
54869;PMS5003;40756;-37.950;145.008;2023-03-23T03:27:31;12;12;
54869;PMS5003;40756;-37.950;145.008;2023-03-23T03:30:02;11;11;
54869;PMS5003;40756;-37.950;145.008;2023-03-23T03:32:38;10;10;
54869;PMS5003;40756;-37.950;145.008;2023-03-23T03:35:12;10;10;
54869;PMS5003;40756;-37.950;145.008;2023-03-23T03:37:41;17;15;
54869;PMS5003;40756;-37.950;145.008;2023-03-23T03:40:12;14;14;
54869;PMS5003;40756;-37.950;145.008;2023-03-23T03:42:43;12;12;
54869;PMS5003;40756;-37.950;145.008;2023-03-23T03:45:14;16;15;
54869;PMS5003;40756;-37.950;145.008;2023-03-23T03:47:45;16;15;
54869;PMS5003;40756;-37.950;145.008;2023-03-23T03:50:14;14;14;
54869;PMS5003;40756;-37.950;145.008;2023-03-23T03:52:44;81;80;
54869;PMS5003;40756;-37.950;145.008;2023-03-23T03:55:14;195;195;
54869;PMS5003;40756;-37.950;145.008;2023-03-23T03:57:44;173;173;
54869;PMS5003;40756;-37.950;145.008;2023-03-23T04:00:14;36;36;
54869;PMS5003;40756;-37.950;145.008;2023-03-23T04:02:45;34;34;
54869;PMS5003;40756;-37.950;145.008;2023-03-23T04:05:17;19;19;
54869;PMS5003;40756;-37.950;145.008;2023-03-23T04:07:47;27;27;
54869;PMS5003;40756;-37.950;145.008;2023-03-23T04:10:18;16;15;
54869;PMS5003;40756;-37.950;145.008;2023-03-23T04:12:47;26;26;
54869;PMS5003;40756;-37.950;145.008;2023-03-23T04:15:16;16;15;
54869;PMS5003;40756;-37.950;145.008;2023-03-23T04:17:46;21;21;
54869;PMS5003;40756;-37.950;145.008;2023-03-23T04:20:15;12;12;
54869;PMS5003;40756;-37.950;145.008;2023-03-23T04:22:46;9;8;
54869;PMS5003;40756;-37.950;145.008;2023-03-23T04:25:17;9;9;
54869;PMS5003;40756;-37.950;145.008;2023-03-23T04:27:48;15;13;
54869;PMS5003;40756;-37.950;145.008;2023-03-23T04:30:18;10;10;
54869;PMS5003;40756;-37.950;145.008;2023-03-23T04:32:49;11;11;
54869;PMS5003;40756;-37.950;145.008;2023-03-23T04:35:19;10;10;
54869;PMS5003;40756;-37.950;145.008;2023-03-23T04:37:50;11;10;
54869;PMS5003;40756;-37.950;145.008;2023-03-23T04:40:21;13;12;
54869;PMS5003;40756;-37.950;145.008;2023-03-23T04:42:51;11;11;
54869;PMS5003;40756;-37.950;145.008;2023-03-23T04:45:20;10;9;
54869;PMS5003;40756;-37.950;145.008;2023-03-23T04:47:50;13;13;
54869;PMS5003;40756;-37.950;145.008;2023-03-23T04:50:21;11;11;
54869;PMS5003;40756;-37.950;145.008;2023-03-23T04:52:51;12;11;
54869;PMS5003;40756;-37.950;145.008;2023-03-23T04:55:21;12;12;
54869;PMS5003;40756;-37.950;145.008;2023-03-23T04:57:51;14;13;
54869;PMS5003;40756;-37.950;145.008;2023-03-23T05:00:21;15;15;
54869;PMS5003;40756;-37.950;145.008;2023-03-23T05:02:50;13;13;
54869;PMS5003;40756;-37.950;145.008;2023-03-23T05:05:20;10;9;
54869;PMS5003;40756;-37.950;145.008;2023-03-23T05:07:51;12;12;
54869;PMS5003;40756;-37.950;145.008;2023-03-23T05:10:21;13;13;
54869;PMS5003;40756;-37.950;145.008;2023-03-23T05:12:52;17;17;
54869;PMS5003;40756;-37.950;145.008;2023-03-23T05:15:22;16;16;
54869;PMS5003;40756;-37.950;145.008;2023-03-23T05:17:51;21;21;
54869;PMS5003;40756;-37.950;145.008;2023-03-23T05:20:20;17;16;
54869;PMS5003;40756;-37.950;145.008;2023-03-23T05:22:51;16;13;
54869;PMS5003;40756;-37.950;145.008;2023-03-23T05:25:20;13;13;
54869;PMS5003;40756;-37.950;145.008;2023-03-23T05:27:50;14;13;
54869;PMS5003;40756;-37.950;145.008;2023-03-23T05:30:20;19;18;
54869;PMS5003;40756;-37.950;145.008;2023-03-23T05:32:49;22;21;
54869;PMS5003;40756;-37.950;145.008;2023-03-23T05:35:19;19;19;
54869;PMS5003;40756;-37.950;145.008;2023-03-23T05:37:48;31;30;
54869;PMS5003;40756;-37.950;145.008;2023-03-23T05:40:18;24;23;
54869;PMS5003;40756;-37.950;145.008;2023-03-23T05:42:48;26;25;
54869;PMS5003;40756;-37.950;145.008;2023-03-23T05:45:18;19;19;
54869;PMS5003;40756;-37.950;145.008;2023-03-23T05:47:47;28;27;
54869;PMS5003;40756;-37.950;145.008;2023-03-23T05:50:16;16;15;
54869;PMS5003;40756;-37.950;145.008;2023-03-23T05:52:47;14;14;
54869;PMS5003;40756;-37.950;145.008;2023-03-23T05:55:16;14;14;
54869;PMS5003;40756;-37.950;145.008;2023-03-23T05:57:45;16;16;
54869;PMS5003;40756;-37.950;145.008;2023-03-23T06:00:15;44;44;
54869;PMS5003;40756;-37.950;145.008;2023-03-23T06:02:45;25;24;
54869;PMS5003;40756;-37.950;145.008;2023-03-23T06:05:15;26;26;
54869;PMS5003;40756;-37.950;145.008;2023-03-23T06:07:45;30;29;
54869;PMS5003;40756;-37.950;145.008;2023-03-23T06:10:14;32;32;
54869;PMS5003;40756;-37.950;145.008;2023-03-23T06:12:44;37;36;
54869;PMS5003;40756;-37.950;145.008;2023-03-23T06:15:13;12;12;
54869;PMS5003;40756;-37.950;145.008;2023-03-23T06:17:42;11;11;
54869;PMS5003;40756;-37.950;145.008;2023-03-23T06:20:12;10;10;
54869;PMS5003;40756;-37.950;145.008;2023-03-23T06:22:41;12;11;
54869;PMS5003;40756;-37.950;145.008;2023-03-23T06:25:11;8;8;
54869;PMS5003;40756;-37.950;145.008;2023-03-23T06:27:40;8;8;
54869;PMS5003;40756;-37.950;145.008;2023-03-23T06:30:10;12;12;
54869;PMS5003;40756;-37.950;145.008;2023-03-23T06:32:40;10;10;
54869;PMS5003;40756;-37.950;145.008;2023-03-23T06:35:10;7;7;
54869;PMS5003;40756;-37.950;145.008;2023-03-23T06:37:40;9;9;
54869;PMS5003;40756;-37.950;145.008;2023-03-23T06:40:09;9;9;
54869;PMS5003;40756;-37.950;145.008;2023-03-23T06:42:38;7;7;
54869;PMS5003;40756;-37.950;145.008;2023-03-23T06:45:08;8;8;
54869;PMS5003;40756;-37.950;145.008;2023-03-23T06:47:38;7;6;
54869;PMS5003;40756;-37.950;145.008;2023-03-23T06:50:08;8;7;
54869;PMS5003;40756;-37.950;145.008;2023-03-23T06:52:38;6;6;
54869;PMS5003;40756;-37.950;145.008;2023-03-23T06:55:08;6;6;
54869;PMS5003;40756;-37.950;145.008;2023-03-23T06:57:38;5;5;
54869;PMS5003;40756;-37.950;145.008;2023-03-23T07:00:07;8;8;
54869;PMS5003;40756;-37.950;145.008;2023-03-23T07:02:38;9;8;
54869;PMS5003;40756;-37.950;145.008;2023-03-23T07:05:08;11;9;
54869;PMS5003;40756;-37.950;145.008;2023-03-23T07:07:38;7;7;
54869;PMS5003;40756;-37.950;145.008;2023-03-23T07:10:09;5;5;
54869;PMS5003;40756;-37.950;145.008;2023-03-23T07:12:38;6;6;
54869;PMS5003;40756;-37.950;145.008;2023-03-23T07:15:08;8;7;
54869;PMS5003;40756;-37.950;145.008;2023-03-23T07:17:38;9;8;
54869;PMS5003;40756;-37.950;145.008;2023-03-23T07:20:09;11;11;
54869;PMS5003;40756;-37.950;145.008;2023-03-23T07:22:39;12;12;
54869;PMS5003;40756;-37.950;145.008;2023-03-23T07:25:08;10;10;
54869;PMS5003;40756;-37.950;145.008;2023-03-23T07:27:38;8;8;
54869;PMS5003;40756;-37.950;145.008;2023-03-23T07:30:08;7;7;
54869;PMS5003;40756;-37.950;145.008;2023-03-23T07:32:39;7;7;
54869;PMS5003;40756;-37.950;145.008;2023-03-23T07:35:09;7;7;
54869;PMS5003;40756;-37.950;145.008;2023-03-23T07:37:38;7;7;
54869;PMS5003;40756;-37.950;145.008;2023-03-23T07:40:09;7;7;
54869;PMS5003;40756;-37.950;145.008;2023-03-23T07:42:39;12;11;
54869;PMS5003;40756;-37.950;145.008;2023-03-23T07:45:10;15;15;
54869;PMS5003;40756;-37.950;145.008;2023-03-23T07:47:41;17;17;
54869;PMS5003;40756;-37.950;145.008;2023-03-23T07:50:10;13;11;
54869;PMS5003;40756;-37.950;145.008;2023-03-23T07:52:40;14;14;
54869;PMS5003;40756;-37.950;145.008;2023-03-23T07:55:11;6;6;
54869;PMS5003;40756;-37.950;145.008;2023-03-23T07:57:40;7;5;
54869;PMS5003;40756;-37.950;145.008;2023-03-23T08:00:10;7;6;
54869;PMS5003;40756;-37.950;145.008;2023-03-23T08:02:41;5;5;
54869;PMS5003;40756;-37.950;145.008;2023-03-23T08:05:10;4;4;
54869;PMS5003;40756;-37.950;145.008;2023-03-23T08:07:40;5;5;
54869;PMS5003;40756;-37.950;145.008;2023-03-23T08:10:10;5;5;
54869;PMS5003;40756;-37.950;145.008;2023-03-23T08:12:41;7;6;
54869;PMS5003;40756;-37.950;145.008;2023-03-23T08:15:12;5;4;
54869;PMS5003;40756;-37.950;145.008;2023-03-23T08:17:42;6;6;
54869;PMS5003;40756;-37.950;145.008;2023-03-23T08:20:11;5;5;
54869;PMS5003;40756;-37.950;145.008;2023-03-23T08:22:42;7;5;
54869;PMS5003;40756;-37.950;145.008;2023-03-23T08:25:14;7;7;
54869;PMS5003;40756;-37.950;145.008;2023-03-23T08:27:44;7;7;
54869;PMS5003;40756;-37.950;145.008;2023-03-23T08:30:15;6;5;
54869;PMS5003;40756;-37.950;145.008;2023-03-23T08:32:46;6;4;
54869;PMS5003;40756;-37.950;145.008;2023-03-23T08:35:16;2;2;
54869;PMS5003;40756;-37.950;145.008;2023-03-23T08:37:47;3;3;
54869;PMS5003;40756;-37.950;145.008;2023-03-23T08:40:17;4;4;
54869;PMS5003;40756;-37.950;145.008;2023-03-23T08:42:49;4;3;
54869;PMS5003;40756;-37.950;145.008;2023-03-23T08:45:20;4;4;
54869;PMS5003;40756;-37.950;145.008;2023-03-23T08:47:51;5;3;
54869;PMS5003;40756;-37.950;145.008;2023-03-23T08:50:21;6;5;
54869;PMS5003;40756;-37.950;145.008;2023-03-23T08:52:53;4;3;
54869;PMS5003;40756;-37.950;145.008;2023-03-23T08:55:23;5;4;
54869;PMS5003;40756;-37.950;145.008;2023-03-23T08:57:52;1;1;
54869;PMS5003;40756;-37.950;145.008;2023-03-23T09:00:22;3;2;
54869;PMS5003;40756;-37.950;145.008;2023-03-23T09:02:52;5;5;
54869;PMS5003;40756;-37.950;145.008;2023-03-23T09:05:22;3;3;
54869;PMS5003;40756;-37.950;145.008;2023-03-23T09:07:54;5;4;
54869;PMS5003;40756;-37.950;145.008;2023-03-23T09:10:25;6;4;
54869;PMS5003;40756;-37.950;145.008;2023-03-23T09:12:55;5;4;
54869;PMS5003;40756;-37.950;145.008;2023-03-23T09:15:25;3;2;
54869;PMS5003;40756;-37.950;145.008;2023-03-23T09:17:54;4;4;
54869;PMS5003;40756;-37.950;145.008;2023-03-23T09:20:25;4;3;
54869;PMS5003;40756;-37.950;145.008;2023-03-23T09:22:56;4;4;
54869;PMS5003;40756;-37.950;145.008;2023-03-23T09:25:26;5;4;
54869;PMS5003;40756;-37.950;145.008;2023-03-23T09:27:57;3;3;
54869;PMS5003;40756;-37.950;145.008;2023-03-23T09:30:28;4;3;
54869;PMS5003;40756;-37.950;145.008;2023-03-23T09:33:00;1;1;
54869;PMS5003;40756;-37.950;145.008;2023-03-23T09:35:31;1;1;
54869;PMS5003;40756;-37.950;145.008;2023-03-23T09:38:02;3;3;
54869;PMS5003;40756;-37.950;145.008;2023-03-23T09:40:33;3;3;
54869;PMS5003;40756;-37.950;145.008;2023-03-23T09:43:17;2;2;
54869;PMS5003;40756;-37.950;145.008;2023-03-23T09:45:59;3;2;
54869;PMS5003;40756;-37.950;145.008;2023-03-23T09:48:38;3;2;
54869;PMS5003;40756;-37.950;145.008;2023-03-23T09:51:17;2;2;
54869;PMS5003;40756;-37.950;145.008;2023-03-23T09:53:55;1;1;
54869;PMS5003;40756;-37.950;145.008;2023-03-23T09:56:29;3;3;
54869;PMS5003;40756;-37.950;145.008;2023-03-23T09:59:00;3;3;
54869;PMS5003;40756;-37.950;145.008;2023-03-23T10:01:39;3;3;
54869;PMS5003;40756;-37.950;145.008;2023-03-23T10:04:14;3;2;
54869;PMS5003;40756;-37.950;145.008;2023-03-23T10:06:52;4;4;
54869;PMS5003;40756;-37.950;145.008;2023-03-23T10:09:25;5;3;
54869;PMS5003;40756;-37.950;145.008;2023-03-23T10:12:00;4;4;
54869;PMS5003;40756;-37.950;145.008;2023-03-23T10:14:42;3;3;
54869;PMS5003;40756;-37.950;145.008;2023-03-23T10:17:24;2;2;
54869;PMS5003;40756;-37.950;145.008;2023-03-23T10:20:00;1;1;
54869;PMS5003;40756;-37.950;145.008;2023-03-23T10:22:47;3;2;
54869;PMS5003;40756;-37.950;145.008;2023-03-23T10:25:22;1;1;
54869;PMS5003;40756;-37.950;145.008;2023-03-23T10:27:58;4;3;
54869;PMS5003;40756;-37.950;145.008;2023-03-23T10:30:33;3;3;
54869;PMS5003;40756;-37.950;145.008;2023-03-23T10:33:05;1;0;
54869;PMS5003;40756;-37.950;145.008;2023-03-23T10:35:43;2;2;
54869;PMS5003;40756;-37.950;145.008;2023-03-23T10:38:17;2;2;
54869;PMS5003;40756;-37.950;145.008;2023-03-23T10:40:52;4;3;
54869;PMS5003;40756;-37.950;145.008;2023-03-23T10:43:25;2;2;
54869;PMS5003;40756;-37.950;145.008;2023-03-23T10:45:56;4;3;
54869;PMS5003;40756;-37.950;145.008;2023-03-23T10:48:30;1;1;
54869;PMS5003;40756;-37.950;145.008;2023-03-23T10:51:03;2;2;
54869;PMS5003;40756;-37.950;145.008;2023-03-23T10:53:43;2;2;
54869;PMS5003;40756;-37.950;145.008;2023-03-23T10:56:23;3;3;
54869;PMS5003;40756;-37.950;145.008;2023-03-23T10:58:55;1;1;
54869;PMS5003;40756;-37.950;145.008;2023-03-23T11:01:29;3;2;
54869;PMS5003;40756;-37.950;145.008;2023-03-23T11:04:01;1;1;
54869;PMS5003;40756;-37.950;145.008;2023-03-23T11:06:31;4;4;
54869;PMS5003;40756;-37.950;145.008;2023-03-23T11:09:03;0;0;
54869;PMS5003;40756;-37.950;145.008;2023-03-23T11:11:39;3;3;
54869;PMS5003;40756;-37.950;145.008;2023-03-23T11:14:15;4;4;
54869;PMS5003;40756;-37.950;145.008;2023-03-23T11:16:50;3;3;
54869;PMS5003;40756;-37.950;145.008;2023-03-23T11:19:22;2;2;
54869;PMS5003;40756;-37.950;145.008;2023-03-23T11:21:54;3;2;
54869;PMS5003;40756;-37.950;145.008;2023-03-23T11:24:27;1;1;
54869;PMS5003;40756;-37.950;145.008;2023-03-23T11:26:59;4;3;
54869;PMS5003;40756;-37.950;145.008;2023-03-23T11:29:30;3;2;
54869;PMS5003;40756;-37.950;145.008;2023-03-23T11:32:03;2;2;
54869;PMS5003;40756;-37.950;145.008;2023-03-23T11:34:40;2;1;
54869;PMS5003;40756;-37.950;145.008;2023-03-23T11:37:13;2;2;
54869;PMS5003;40756;-37.950;145.008;2023-03-23T11:39:47;7;6;
54869;PMS5003;40756;-37.950;145.008;2023-03-23T11:42:23;4;4;
54869;PMS5003;40756;-37.950;145.008;2023-03-23T11:44:54;3;2;
54869;PMS5003;40756;-37.950;145.008;2023-03-23T11:47:40;3;3;
54869;PMS5003;40756;-37.950;145.008;2023-03-23T11:50:16;2;2;
54869;PMS5003;40756;-37.950;145.008;2023-03-23T11:52:51;3;3;
54869;PMS5003;40756;-37.950;145.008;2023-03-23T11:55:29;3;3;
54869;PMS5003;40756;-37.950;145.008;2023-03-23T11:58:07;4;3;
54869;PMS5003;40756;-37.950;145.008;2023-03-23T12:00:40;5;4;
54869;PMS5003;40756;-37.950;145.008;2023-03-23T12:03:17;1;1;
54869;PMS5003;40756;-37.950;145.008;2023-03-23T12:05:48;3;3;
54869;PMS5003;40756;-37.950;145.008;2023-03-23T12:08:32;2;2;
54869;PMS5003;40756;-37.950;145.008;2023-03-23T12:11:18;4;2;
54869;PMS5003;40756;-37.950;145.008;2023-03-23T12:14:02;2;2;
54869;PMS5003;40756;-37.950;145.008;2023-03-23T12:16:47;2;2;
54869;PMS5003;40756;-37.950;145.008;2023-03-23T12:19:26;2;2;
54869;PMS5003;40756;-37.950;145.008;2023-03-23T12:22:07;3;2;
54869;PMS5003;40756;-37.950;145.008;2023-03-23T12:24:49;3;3;
54869;PMS5003;40756;-37.950;145.008;2023-03-23T12:27:28;4;3;
54869;PMS5003;40756;-37.950;145.008;2023-03-23T12:30:07;4;4;
54869;PMS5003;40756;-37.950;145.008;2023-03-23T12:32:51;3;2;
54869;PMS5003;40756;-37.950;145.008;2023-03-23T12:35:34;8;7;
54869;PMS5003;40756;-37.950;145.008;2023-03-23T12:38:13;4;4;
54869;PMS5003;40756;-37.950;145.008;2023-03-23T12:40:54;4;3;
54869;PMS5003;40756;-37.950;145.008;2023-03-23T12:43:34;5;4;
54869;PMS5003;40756;-37.950;145.008;2023-03-23T12:46:16;4;2;
54869;PMS5003;40756;-37.950;145.008;2023-03-23T12:49:29;4;3;
54869;PMS5003;40756;-37.950;145.008;2023-03-23T12:52:04;3;3;
54869;PMS5003;40756;-37.950;145.008;2023-03-23T12:54:40;4;3;
54869;PMS5003;40756;-37.950;145.008;2023-03-23T12:57:18;6;6;
54869;PMS5003;40756;-37.950;145.008;2023-03-23T12:59:53;3;3;
54869;PMS5003;40756;-37.950;145.008;2023-03-23T13:02:29;4;4;
54869;PMS5003;40756;-37.950;145.008;2023-03-23T13:05:03;3;3;
54869;PMS5003;40756;-37.950;145.008;2023-03-23T13:07:39;3;3;
54869;PMS5003;40756;-37.950;145.008;2023-03-23T13:10:15;3;3;
54869;PMS5003;40756;-37.950;145.008;2023-03-23T13:12:50;2;2;
54869;PMS5003;40756;-37.950;145.008;2023-03-23T13:15:23;7;7;
54869;PMS5003;40756;-37.950;145.008;2023-03-23T13:18:04;4;4;
54869;PMS5003;40756;-37.950;145.008;2023-03-23T13:21:01;4;3;
54869;PMS5003;40756;-37.950;145.008;2023-03-23T13:23:40;5;4;
54869;PMS5003;40756;-37.950;145.008;2023-03-23T13:26:13;3;3;
54869;PMS5003;40756;-37.950;145.008;2023-03-23T13:28:48;3;3;
54869;PMS5003;40756;-37.950;145.008;2023-03-23T13:31:25;5;4;
54869;PMS5003;40756;-37.950;145.008;2023-03-23T13:33:58;6;5;
54869;PMS5003;40756;-37.950;145.008;2023-03-23T13:36:31;4;4;
54869;PMS5003;40756;-37.950;145.008;2023-03-23T13:39:04;4;4;
54869;PMS5003;40756;-37.950;145.008;2023-03-23T13:41:48;3;3;
54869;PMS5003;40756;-37.950;145.008;2023-03-23T13:44:38;4;4;
54869;PMS5003;40756;-37.950;145.008;2023-03-23T13:47:21;3;3;
54869;PMS5003;40756;-37.950;145.008;2023-03-23T13:49:55;6;5;
54869;PMS5003;40756;-37.950;145.008;2023-03-23T13:52:37;4;4;
54869;PMS5003;40756;-37.950;145.008;2023-03-23T13:55:19;4;4;
54869;PMS5003;40756;-37.950;145.008;2023-03-23T13:58:10;2;2;
54869;PMS5003;40756;-37.950;145.008;2023-03-23T14:00:50;5;5;
54869;PMS5003;40756;-37.950;145.008;2023-03-23T14:03:38;3;3;
54869;PMS5003;40756;-37.950;145.008;2023-03-23T14:06:12;4;4;
54869;PMS5003;40756;-37.950;145.008;2023-03-23T14:08:45;6;4;
54869;PMS5003;40756;-37.950;145.008;2023-03-23T14:11:17;4;4;
54869;PMS5003;40756;-37.950;145.008;2023-03-23T14:13:57;5;5;
54869;PMS5003;40756;-37.950;145.008;2023-03-23T14:16:36;5;5;
54869;PMS5003;40756;-37.950;145.008;2023-03-23T14:19:14;3;3;
54869;PMS5003;40756;-37.950;145.008;2023-03-23T14:21:50;5;5;
54869;PMS5003;40756;-37.950;145.008;2023-03-23T14:24:22;7;6;
54869;PMS5003;40756;-37.950;145.008;2023-03-23T14:27:01;6;5;
54869;PMS5003;40756;-37.950;145.008;2023-03-23T14:29:37;6;6;
54869;PMS5003;40756;-37.950;145.008;2023-03-23T14:32:10;4;4;
54869;PMS5003;40756;-37.950;145.008;2023-03-23T14:34:43;3;3;
54869;PMS5003;40756;-37.950;145.008;2023-03-23T14:37:15;7;6;
54869;PMS5003;40756;-37.950;145.008;2023-03-23T14:39:45;6;6;
54869;PMS5003;40756;-37.950;145.008;2023-03-23T14:42:18;7;6;
54869;PMS5003;40756;-37.950;145.008;2023-03-23T14:44:51;6;6;
54869;PMS5003;40756;-37.950;145.008;2023-03-23T14:47:22;4;4;
54869;PMS5003;40756;-37.950;145.008;2023-03-23T14:49:56;7;5;
54869;PMS5003;40756;-37.950;145.008;2023-03-23T14:52:27;6;5;
54869;PMS5003;40756;-37.950;145.008;2023-03-23T14:55:10;5;4;
54869;PMS5003;40756;-37.950;145.008;2023-03-23T14:57:42;5;5;
54869;PMS5003;40756;-37.950;145.008;2023-03-23T15:00:12;5;5;
54869;PMS5003;40756;-37.950;145.008;2023-03-23T15:02:44;5;5;
54869;PMS5003;40756;-37.950;145.008;2023-03-23T15:05:18;5;4;
54869;PMS5003;40756;-37.950;145.008;2023-03-23T15:07:50;5;4;
54869;PMS5003;40756;-37.950;145.008;2023-03-23T15:10:22;4;3;
54869;PMS5003;40756;-37.950;145.008;2023-03-23T15:12:52;4;4;
54869;PMS5003;40756;-37.950;145.008;2023-03-23T15:15:24;6;5;
54869;PMS5003;40756;-37.950;145.008;2023-03-23T15:17:55;4;3;
54869;PMS5003;40756;-37.950;145.008;2023-03-23T15:20:31;3;2;
54869;PMS5003;40756;-37.950;145.008;2023-03-23T15:23:16;5;5;
54869;PMS5003;40756;-37.950;145.008;2023-03-23T15:25:54;4;4;
54869;PMS5003;40756;-37.950;145.008;2023-03-23T15:28:29;4;4;
54869;PMS5003;40756;-37.950;145.008;2023-03-23T15:31:00;5;4;
54869;PMS5003;40756;-37.950;145.008;2023-03-23T15:33:35;4;4;
54869;PMS5003;40756;-37.950;145.008;2023-03-23T15:36:08;3;3;
54869;PMS5003;40756;-37.950;145.008;2023-03-23T15:38:43;4;4;
54869;PMS5003;40756;-37.950;145.008;2023-03-23T15:41:22;5;5;
54869;PMS5003;40756;-37.950;145.008;2023-03-23T15:43:53;4;4;
54869;PMS5003;40756;-37.950;145.008;2023-03-23T15:46:24;4;4;
54869;PMS5003;40756;-37.950;145.008;2023-03-23T15:49:06;4;4;
54869;PMS5003;40756;-37.950;145.008;2023-03-23T15:51:38;2;2;
54869;PMS5003;40756;-37.950;145.008;2023-03-23T15:54:09;5;5;
54869;PMS5003;40756;-37.950;145.008;2023-03-23T15:56:43;2;2;
54869;PMS5003;40756;-37.950;145.008;2023-03-23T15:59:13;2;2;
54869;PMS5003;40756;-37.950;145.008;2023-03-23T16:03:12;2;2;
54869;PMS5003;40756;-37.950;145.008;2023-03-23T16:05:45;1;1;
54869;PMS5003;40756;-37.950;145.008;2023-03-23T16:08:14;3;3;
54869;PMS5003;40756;-37.950;145.008;2023-03-23T16:10:44;2;1;
54869;PMS5003;40756;-37.950;145.008;2023-03-23T16:13:14;2;2;
54869;PMS5003;40756;-37.950;145.008;2023-03-23T16:15:44;2;1;
54869;PMS5003;40756;-37.950;145.008;2023-03-23T16:18:16;3;3;
54869;PMS5003;40756;-37.950;145.008;2023-03-23T16:20:48;2;2;
54869;PMS5003;40756;-37.950;145.008;2023-03-23T16:23:18;1;1;
54869;PMS5003;40756;-37.950;145.008;2023-03-23T16:25:47;2;2;
54869;PMS5003;40756;-37.950;145.008;2023-03-23T16:28:17;2;2;
54869;PMS5003;40756;-37.950;145.008;2023-03-23T16:30:46;1;1;